createdAt,value
2023-03-05T00:01:47.273Z,4.00
2023-03-05T00:04:17.163Z,4.30
2023-03-05T00:06:45.930Z,4.80
2023-03-05T00:09:30.210Z,4.30
2023-03-05T00:12:08.221Z,5.00
2023-03-05T00:14:37.476Z,4.80
2023-03-05T00:17:14.563Z,4.90
2023-03-05T00:19:43.472Z,4.40
2023-03-05T00:22:23.164Z,4.70
2023-03-05T00:24:52.727Z,4.50
2023-03-05T00:27:22.336Z,5.00
2023-03-05T00:29:50.104Z,4.10
2023-03-05T00:32:17.739Z,5.00
2023-03-05T00:34:46.252Z,4.60
2023-03-05T00:37:18.476Z,5.10
2023-03-05T00:39:45.801Z,5.50
2023-03-05T00:42:14.244Z,6.80
2023-03-05T00:44:42.838Z,5.80
2023-03-05T00:47:11.940Z,5.20
2023-03-05T00:49:40.728Z,5.70
2023-03-05T00:52:09.902Z,5.70
2023-03-05T00:54:37.983Z,6.20
2023-03-05T00:57:07.124Z,5.20
2023-03-05T00:59:39.453Z,6.90
2023-03-05T01:02:07.982Z,5.70
2023-03-05T01:04:35.090Z,6.00
2023-03-05T01:07:02.850Z,6.10
2023-03-05T01:09:33.046Z,6.40
2023-03-05T01:12:00.123Z,5.70
2023-03-05T01:14:31.578Z,5.90
2023-03-05T01:17:06.909Z,6.60
2023-03-05T01:19:33.931Z,6.90
2023-03-05T01:22:02.967Z,6.40
2023-03-05T01:24:40.615Z,6.50
2023-03-05T01:27:14.055Z,6.20
2023-03-05T01:29:41.916Z,6.10
2023-03-05T01:32:16.873Z,6.20
2023-03-05T01:34:57.216Z,6.50
2023-03-05T01:37:33.965Z,7.60
2023-03-05T01:40:05.254Z,8.70
2023-03-05T01:42:58.485Z,6.60
2023-03-05T01:45:32.837Z,7.80
2023-03-05T01:48:02.813Z,7.20
2023-03-05T01:50:35.811Z,6.40
2023-03-05T01:53:09.796Z,7.50
2023-03-05T01:55:45.036Z,7.30
2023-03-05T01:59:25.641Z,8.10
2023-03-05T02:02:01.088Z,6.30
2023-03-05T02:05:07.558Z,8.10
2023-03-05T02:07:45.143Z,5.50
2023-03-05T02:10:31.051Z,7.40
2023-03-05T02:13:12.821Z,7.20
2023-03-05T02:15:43.252Z,7.70
2023-03-05T02:18:21.365Z,7.70
2023-03-05T02:23:57.174Z,7.50
2023-03-05T02:26:34.619Z,7.40
2023-03-05T02:29:05.756Z,8.40
2023-03-05T02:31:37.558Z,6.50
2023-03-05T02:34:14.731Z,7.20
2023-03-05T02:37:08.923Z,7.00
2023-03-05T02:39:40.856Z,7.70
2023-03-05T02:42:08.420Z,6.30
2023-03-05T02:44:36.945Z,7.50
2023-03-05T02:47:19.206Z,7.80
2023-03-05T02:49:50.564Z,6.50
2023-03-05T02:52:25.096Z,6.70
2023-03-05T02:54:57.359Z,6.90
2023-03-05T02:57:28.194Z,7.20
2023-03-05T02:59:59.064Z,7.30
2023-03-05T03:02:33.814Z,6.40
2023-03-05T03:05:12.161Z,8.70
2023-03-05T03:07:42.034Z,7.00
2023-03-05T03:10:14.465Z,5.80
2023-03-05T03:12:53.406Z,7.10
2023-03-05T03:15:23.376Z,7.60
2023-03-05T03:17:58.647Z,6.60
2023-03-05T03:20:29.195Z,7.60
2023-03-05T03:22:59.812Z,6.70
2023-03-05T03:25:31.410Z,6.40
2023-03-05T03:28:11.543Z,6.80
2023-03-05T03:30:48.538Z,7.40
2023-03-05T03:33:24.951Z,7.60
2023-03-05T03:35:56.648Z,5.80
2023-03-05T03:38:26.149Z,6.60
2023-03-05T03:41:01.076Z,7.30
2023-03-05T03:43:29.703Z,7.50
2023-03-05T03:46:01.074Z,6.40
2023-03-05T03:48:28.052Z,5.70
2023-03-05T03:51:06.874Z,4.70
2023-03-05T03:53:36.594Z,6.40
2023-03-05T03:56:03.645Z,7.90
2023-03-05T03:58:32.404Z,6.80
2023-03-05T04:00:59.612Z,5.70
2023-03-05T04:03:28.212Z,7.00
2023-03-05T04:06:21.371Z,6.80
2023-03-05T04:09:09.405Z,6.30
2023-03-05T04:11:37.692Z,5.60
2023-03-05T04:14:06.706Z,6.30
2023-03-05T04:16:34.573Z,6.10
2023-03-05T04:19:01.792Z,6.90
2023-03-05T04:21:33.221Z,6.30
2023-03-05T04:24:00.851Z,7.00
2023-03-05T04:26:30.570Z,6.00
2023-03-05T04:28:59.251Z,5.90
2023-03-05T04:31:32.005Z,6.20
2023-03-05T04:34:06.261Z,5.00
2023-03-05T04:36:34.836Z,6.90
2023-03-05T04:41:55.415Z,4.90
2023-03-05T04:44:25.467Z,7.50
2023-03-05T04:46:52.805Z,5.70
2023-03-05T04:49:19.318Z,7.30
2023-03-05T04:51:47.482Z,6.50
2023-03-05T04:54:22.055Z,7.30
2023-03-05T04:56:49.280Z,6.20
2023-03-05T04:59:18.764Z,5.20
2023-03-05T05:01:45.890Z,6.50
2023-03-05T05:04:22.945Z,4.50
2023-03-05T05:09:48.822Z,5.80
2023-03-05T05:12:15.995Z,5.50
2023-03-05T05:14:43.562Z,5.10
2023-03-05T05:17:11.357Z,5.50
2023-03-05T05:19:41.086Z,5.50
2023-03-05T05:22:10.634Z,5.30
2023-03-05T05:24:48.542Z,5.60
2023-03-05T05:27:16.766Z,5.50
2023-03-05T05:29:47.623Z,4.80
2023-03-05T05:32:23.600Z,5.60
2023-03-05T05:35:22.623Z,5.40
2023-03-05T05:37:51.400Z,5.30
2023-03-05T05:40:22.839Z,5.20
2023-03-05T05:42:49.708Z,4.50
2023-03-05T05:45:17.575Z,5.30
2023-03-05T05:47:46.778Z,6.10
2023-03-05T05:50:14.201Z,4.90
2023-03-05T05:52:41.267Z,5.70
2023-03-05T05:55:16.301Z,4.50
2023-03-05T05:57:45.701Z,3.60
2023-03-05T06:00:18.078Z,5.20
2023-03-05T06:02:47.252Z,5.30
2023-03-05T06:05:15.959Z,4.20
2023-03-05T06:07:46.903Z,5.20
2023-03-05T06:10:15.188Z,5.20
2023-03-05T06:12:46.134Z,5.10
2023-03-05T06:15:16.860Z,3.50
2023-03-05T06:17:44.309Z,4.90
2023-03-05T06:20:13.583Z,5.40
2023-03-05T06:22:40.795Z,5.00
2023-03-05T06:25:08.831Z,4.20
2023-03-05T06:27:37.577Z,5.30
2023-03-05T06:30:15.465Z,4.50
2023-03-05T06:32:42.071Z,4.90
2023-03-05T06:35:12.483Z,4.10
2023-03-05T06:37:40.837Z,4.80
2023-03-05T06:40:09.650Z,5.50
2023-03-05T06:42:39.778Z,5.10
2023-03-05T06:45:07.968Z,4.60
2023-03-05T06:47:36.311Z,4.80
2023-03-05T06:50:16.375Z,6.10
2023-03-05T06:52:59.507Z,4.40
2023-03-05T06:55:27.959Z,4.60
2023-03-05T06:57:57.478Z,4.60
2023-03-05T07:00:36.756Z,4.30
2023-03-05T07:03:05.021Z,5.40
2023-03-05T07:05:38.993Z,4.20
2023-03-05T07:08:12.370Z,5.10
2023-03-05T07:10:43.429Z,4.30
2023-03-05T07:13:13.447Z,4.90
2023-03-05T07:15:41.066Z,5.00
2023-03-05T07:18:26.620Z,4.40
2023-03-05T07:20:53.560Z,4.30
2023-03-05T07:23:21.238Z,4.20
2023-03-05T07:25:49.605Z,5.50
2023-03-05T07:28:16.311Z,4.50
2023-03-05T07:30:44.457Z,5.20
2023-03-05T07:33:12.297Z,4.50
2023-03-05T07:35:42.716Z,3.90
2023-03-05T07:38:10.379Z,5.20
2023-03-05T07:40:38.313Z,5.00
2023-03-05T07:43:06.084Z,5.00
2023-03-05T07:45:33.954Z,5.40
2023-03-05T07:48:01.709Z,4.90
2023-03-05T07:50:29.205Z,5.00
2023-03-05T07:52:59.818Z,5.40
2023-03-05T07:55:30.369Z,5.50
2023-03-05T07:57:57.362Z,5.80
2023-03-05T08:00:27.905Z,5.40
2023-03-05T08:03:00.782Z,5.60
2023-03-05T08:05:28.808Z,5.50
2023-03-05T08:07:57.666Z,5.20
2023-03-05T08:10:25.626Z,6.00
2023-03-05T08:12:52.463Z,5.70
2023-03-05T08:15:24.575Z,5.50
2023-03-05T08:17:53.036Z,5.40
2023-03-05T08:20:30.789Z,5.80
2023-03-05T08:23:02.290Z,6.00
2023-03-05T08:25:33.603Z,6.30
2023-03-05T08:28:09.768Z,6.10
2023-03-05T08:30:37.036Z,6.20
2023-03-05T08:33:07.772Z,6.50
2023-03-05T08:35:40.790Z,6.80
2023-03-05T08:38:09.274Z,5.50
2023-03-05T08:40:38.602Z,6.40
2023-03-05T08:43:07.540Z,6.40
2023-03-05T08:45:41.466Z,6.20
2023-03-05T08:48:12.561Z,7.10
2023-03-05T08:50:47.895Z,7.00
2023-03-05T08:53:16.660Z,6.10
2023-03-05T08:56:04.557Z,7.50
2023-03-05T08:58:35.323Z,6.40
2023-03-05T09:01:04.384Z,7.40
2023-03-05T09:04:04.429Z,6.70
2023-03-05T09:06:38.100Z,8.00
2023-03-05T09:09:11.946Z,7.40
2023-03-05T09:11:39.364Z,6.90
2023-03-05T09:14:08.369Z,8.20
2023-03-05T09:16:38.362Z,8.80
2023-03-05T09:19:05.490Z,7.30
2023-03-05T09:21:35.307Z,8.70
2023-03-05T09:24:04.241Z,7.70
2023-03-05T09:26:34.581Z,8.40
2023-03-05T09:29:03.536Z,7.90
2023-03-05T09:31:31.639Z,8.20
2023-03-05T09:34:02.018Z,8.20
2023-03-05T09:36:31.941Z,8.80
2023-03-05T09:39:24.714Z,9.40
2023-03-05T09:42:20.652Z,8.50
2023-03-05T09:45:34.524Z,8.60
2023-03-05T09:48:18.497Z,8.40
2023-03-05T09:51:05.740Z,8.00
2023-03-05T09:54:05.768Z,8.10
2023-03-05T09:56:39.991Z,7.90
2023-03-05T10:02:48.003Z,8.90
2023-03-05T10:08:22.883Z,9.00
2023-03-05T10:10:55.300Z,8.50
2023-03-05T10:13:26.111Z,8.00
2023-03-05T10:16:24.810Z,8.80
2023-03-05T10:19:09.119Z,9.70
2023-03-05T10:22:04.016Z,9.90
2023-03-05T10:24:59.184Z,9.30
2023-03-05T10:28:00.175Z,10.00
2023-03-05T10:30:56.370Z,9.70
2023-03-05T10:33:55.913Z,9.10
2023-03-05T10:36:53.756Z,11.00
2023-03-05T10:40:16.956Z,10.60
2023-03-05T11:16:34.825Z,3.80
2023-03-05T11:19:45.560Z,3.90
2023-03-05T11:22:40.125Z,3.70
2023-03-05T11:25:11.228Z,2.60
2023-03-05T11:27:51.015Z,3.30
2023-03-05T11:30:30.275Z,3.90
2023-03-05T11:33:23.063Z,3.20
2023-03-05T11:35:53.379Z,5.40
2023-03-05T11:39:13.004Z,3.80
2023-03-05T11:41:48.621Z,3.20
2023-03-05T11:44:23.018Z,3.70
2023-03-05T11:46:58.268Z,4.00
2023-03-05T11:49:43.440Z,4.10
2023-03-05T11:52:45.411Z,4.20
2023-03-05T11:55:36.732Z,4.50
2023-03-05T11:58:44.019Z,5.60
2023-03-05T12:01:44.098Z,6.70
2023-03-05T12:04:16.297Z,6.80
2023-03-05T12:07:09.015Z,7.30
2023-03-05T12:09:52.357Z,8.00
2023-03-05T12:12:51.605Z,8.40
2023-03-05T12:15:30.329Z,8.50
2023-03-05T12:18:25.013Z,8.30
2023-03-05T12:24:46.466Z,6.00
2023-03-05T12:27:21.442Z,5.00
2023-03-05T12:29:53.257Z,4.80
2023-03-05T12:32:44.320Z,4.80
2023-03-05T12:35:41.338Z,4.90
2023-03-05T12:38:35.583Z,4.40
2023-03-05T12:41:45.325Z,4.20
2023-03-05T12:44:20.918Z,4.30
2023-03-05T12:47:20.082Z,3.40
2023-03-05T12:49:51.740Z,4.60
2023-03-05T12:52:33.096Z,4.60
2023-03-05T12:55:56.486Z,5.90
2023-03-05T12:59:06.651Z,5.70
2023-03-05T13:01:47.442Z,4.80
2023-03-05T13:04:21.263Z,4.60
2023-03-05T13:07:01.748Z,5.40
2023-03-05T13:09:35.272Z,4.20
2023-03-05T13:12:14.510Z,4.80
2023-03-05T13:15:20.070Z,4.30
2023-03-05T13:17:57.242Z,3.60
2023-03-05T13:20:41.792Z,4.10
2023-03-05T13:23:10.407Z,3.80
2023-03-05T13:25:41.754Z,3.70
2023-03-05T13:28:14.840Z,4.50
2023-03-05T13:30:56.965Z,4.10
2023-03-05T13:33:29.293Z,3.80
2023-03-05T13:35:58.485Z,3.90
2023-03-05T13:38:45.089Z,4.50
2023-03-05T13:41:15.994Z,3.50
2023-03-05T13:43:49.003Z,4.00
2023-03-05T13:46:36.341Z,3.60
2023-03-05T13:49:41.884Z,3.50
2023-03-05T13:52:15.792Z,4.20
2023-03-05T13:54:44.264Z,4.20
2023-03-05T13:57:43.369Z,3.30
2023-03-05T14:00:36.534Z,4.10
2023-03-05T14:03:19.731Z,3.60
2023-03-05T14:05:50.673Z,3.20
2023-03-05T14:08:54.178Z,3.40
2023-03-05T14:11:25.777Z,3.20
2023-03-05T14:14:04.757Z,4.10
2023-03-05T14:16:39.409Z,4.20
2023-03-05T14:19:29.780Z,4.40
2023-03-05T14:22:02.608Z,3.70
2023-03-05T14:24:31.193Z,3.80
2023-03-05T14:27:08.234Z,4.50
2023-03-05T14:29:38.557Z,4.50
2023-03-05T14:32:22.226Z,4.00
2023-03-05T14:34:55.667Z,4.10
2023-03-05T14:37:29.427Z,4.90
2023-03-05T14:40:00.661Z,4.60
2023-03-05T14:42:38.745Z,4.40
2023-03-05T14:45:40.570Z,5.30
2023-03-05T14:48:12.098Z,4.50
2023-03-05T14:51:01.026Z,4.80
2023-03-05T14:53:47.518Z,4.50
2023-03-05T14:56:30.631Z,5.80
2023-03-05T14:59:01.198Z,4.60
2023-03-05T15:01:31.463Z,5.50
2023-03-05T15:04:00.880Z,6.00
2023-03-05T15:06:42.671Z,5.30
2023-03-05T15:09:14.868Z,5.00
2023-03-05T15:11:52.374Z,5.80
2023-03-05T15:14:23.518Z,5.80
2023-03-05T15:16:56.033Z,5.50
2023-03-05T15:19:28.258Z,5.10
2023-03-05T15:22:09.830Z,5.30
2023-03-05T15:24:40.687Z,5.40
2023-03-05T15:27:23.230Z,5.50
2023-03-05T15:29:57.429Z,5.40
2023-03-05T15:32:31.872Z,6.40
2023-03-05T15:35:03.001Z,6.50
2023-03-05T15:37:34.476Z,5.70
2023-03-05T15:40:02.998Z,6.30
2023-03-05T15:42:54.426Z,6.00
2023-03-05T15:45:22.780Z,4.40
2023-03-05T15:47:55.178Z,5.70
2023-03-05T15:50:24.883Z,6.30
2023-03-05T15:52:52.415Z,6.00
2023-03-05T15:55:22.563Z,6.80
2023-03-05T15:57:53.596Z,6.00
2023-03-05T16:00:31.057Z,5.80
2023-03-05T16:03:02.430Z,6.50
2023-03-05T16:05:30.056Z,5.40
2023-03-05T16:08:05.143Z,6.10
2023-03-05T16:10:34.536Z,6.50
2023-03-05T16:13:09.172Z,6.60
2023-03-05T16:15:41.452Z,6.80
2023-03-05T16:18:22.218Z,7.40
2023-03-05T16:20:51.647Z,7.70
2023-03-05T16:23:34.645Z,7.70
2023-03-05T16:26:04.987Z,7.70
2023-03-05T16:28:41.863Z,7.50
2023-03-05T16:31:15.069Z,8.20
2023-03-05T16:33:55.597Z,6.90
2023-03-05T16:39:42.347Z,8.00
2023-03-05T16:42:13.404Z,8.40
2023-03-05T16:44:51.517Z,7.80
2023-03-05T16:47:19.243Z,7.80
2023-03-05T16:49:53.148Z,8.30
2023-03-05T16:52:22.703Z,8.00
2023-03-05T16:54:52.199Z,8.80
2023-03-05T16:57:25.196Z,9.20
2023-03-05T17:00:00.292Z,8.80
2023-03-05T17:02:32.269Z,8.40
2023-03-05T17:05:08.711Z,7.70
2023-03-05T17:07:41.223Z,9.40
2023-03-05T17:10:18.440Z,9.00
2023-03-05T17:12:54.677Z,9.30
2023-03-05T17:15:35.021Z,9.10
2023-03-05T17:18:06.153Z,9.60
2023-03-05T17:20:42.810Z,10.20
2023-03-05T17:23:10.890Z,8.30
2023-03-05T17:25:41.752Z,9.40
2023-03-05T17:28:13.919Z,9.70
2023-03-05T17:30:45.467Z,9.30
2023-03-05T17:33:16.982Z,8.80
2023-03-05T17:35:51.255Z,10.60
2023-03-05T17:38:22.689Z,9.50
2023-03-05T17:40:55.980Z,9.30
2023-03-05T17:43:26.971Z,10.20
2023-03-05T17:46:00.874Z,10.80
2023-03-05T17:48:33.081Z,11.00
2023-03-05T17:51:06.571Z,11.60
2023-03-05T17:53:38.772Z,11.90
2023-03-05T17:56:21.873Z,11.40
2023-03-05T17:58:58.107Z,10.10
2023-03-05T18:01:41.869Z,11.10
2023-03-05T18:04:14.941Z,11.50
2023-03-05T18:09:34.997Z,11.50
2023-03-05T18:12:10.330Z,11.20
2023-03-05T18:14:41.675Z,10.70
2023-03-05T18:17:40.454Z,11.60
2023-03-05T18:20:34.285Z,10.30
2023-03-05T18:23:11.698Z,11.30
2023-03-05T18:26:09.939Z,10.50
2023-03-05T18:28:42.956Z,11.90
2023-03-05T18:31:16.946Z,12.10
2023-03-05T18:34:07.237Z,12.40
2023-03-05T18:37:27.726Z,14.10
2023-03-05T18:40:52.236Z,9.50
2023-03-05T18:43:39.807Z,14.60
2023-03-05T18:46:11.530Z,15.60
2023-03-05T18:49:08.688Z,15.00
2023-03-05T18:51:39.294Z,15.40
2023-03-05T18:54:28.990Z,17.30
2023-03-05T18:57:07.335Z,17.30
2023-03-05T18:59:42.906Z,12.00
2023-03-05T19:02:16.352Z,17.10
2023-03-05T19:04:50.419Z,16.60
2023-03-05T19:07:26.051Z,15.00
2023-03-05T19:10:05.133Z,16.40
2023-03-05T19:13:19.206Z,13.70
2023-03-05T19:16:30.445Z,15.40
2023-03-05T19:19:16.022Z,15.50
2023-03-05T19:21:49.531Z,14.80
2023-03-05T19:24:22.628Z,12.70
2023-03-05T19:27:01.684Z,15.30
2023-03-05T19:29:49.257Z,13.40
2023-03-05T19:32:47.982Z,12.50
2023-03-05T19:35:24.501Z,15.00
2023-03-05T19:37:53.219Z,12.20
2023-03-05T19:40:27.312Z,11.00
2023-03-05T19:43:18.833Z,15.10
2023-03-05T19:45:55.205Z,13.90
2023-03-05T19:48:23.976Z,11.80
2023-03-05T19:50:55.664Z,14.80
2023-03-05T19:53:50.719Z,13.70
2023-03-05T19:56:21.059Z,15.80
2023-03-05T19:58:49.942Z,16.90
2023-03-05T20:01:21.604Z,16.80
2023-03-05T20:03:56.036Z,15.80
2023-03-05T20:06:24.901Z,14.90
2023-03-05T20:08:55.243Z,15.10
2023-03-05T20:11:24.130Z,14.80
2023-03-05T20:13:54.014Z,17.90
2023-03-05T20:19:35.675Z,14.50
2023-03-05T20:22:25.326Z,14.00
2023-03-05T20:24:54.428Z,14.60
2023-03-05T20:27:47.211Z,16.90
2023-03-05T20:30:28.147Z,18.10
2023-03-05T20:32:57.813Z,16.60
2023-03-05T20:35:25.047Z,13.20
2023-03-05T20:38:21.053Z,16.20
2023-03-05T20:40:56.341Z,16.30
2023-03-05T20:43:24.733Z,16.90
2023-03-05T20:45:56.667Z,18.40
2023-03-05T20:48:26.844Z,17.40
2023-03-05T20:50:55.381Z,17.10
2023-03-05T20:53:27.855Z,18.30
2023-03-05T20:56:01.240Z,17.10
2023-03-05T20:58:32.748Z,15.70
2023-03-05T21:01:00.017Z,14.60
2023-03-05T21:03:53.713Z,15.70
2023-03-05T21:06:20.630Z,15.20
2023-03-05T21:09:16.796Z,16.10
2023-03-05T21:12:13.353Z,16.90
2023-03-05T21:14:44.611Z,15.60
2023-03-05T21:17:13.599Z,15.00
2023-03-05T21:19:47.864Z,13.60
2023-03-05T21:22:43.255Z,12.90
2023-03-05T21:28:45.980Z,13.40
2023-03-05T21:31:43.451Z,14.40
2023-03-05T21:34:19.388Z,12.70
2023-03-05T21:36:54.016Z,11.80
2023-03-05T21:39:24.652Z,13.00
2023-03-05T21:41:58.669Z,16.10
2023-03-05T21:44:36.469Z,14.50
2023-03-05T21:50:11.625Z,15.70
2023-03-05T21:52:43.913Z,14.10
2023-03-05T21:58:33.339Z,13.60
2023-03-05T22:01:52.861Z,14.00
2023-03-05T22:05:08.137Z,12.80
2023-03-05T22:08:15.476Z,15.60
2023-03-05T22:11:37.139Z,14.30
2023-03-05T22:14:21.617Z,13.90
2023-03-05T22:16:58.074Z,15.80
2023-03-05T22:19:33.712Z,14.30
2023-03-05T22:22:31.886Z,13.40
2023-03-05T22:25:04.664Z,15.00
2023-03-05T22:27:33.453Z,12.10
2023-03-05T22:30:30.337Z,12.10
2023-03-05T22:33:04.106Z,16.70
2023-03-05T22:35:37.215Z,15.60
2023-03-05T22:38:14.345Z,17.10
2023-03-05T22:41:23.216Z,16.90
2023-03-05T22:44:18.955Z,13.30
2023-03-05T22:46:54.080Z,17.10
2023-03-05T22:49:25.194Z,13.90
2023-03-05T22:51:56.900Z,16.50
2023-03-05T22:54:28.846Z,14.40
2023-03-05T22:57:00.536Z,16.40
2023-03-05T22:59:31.100Z,16.00
2023-03-05T23:02:00.764Z,15.80
2023-03-05T23:05:03.341Z,14.30
2023-03-05T23:07:49.338Z,17.10
2023-03-05T23:10:26.806Z,16.40
2023-03-05T23:13:29.074Z,19.10
2023-03-05T23:16:05.565Z,13.10
2023-03-05T23:21:08.768Z,15.80
2023-03-05T23:23:41.750Z,12.50
2023-03-05T23:29:16.863Z,17.20
2023-03-05T23:32:38.793Z,18.50
2023-03-05T23:35:45.926Z,18.20
2023-03-05T23:41:12.296Z,17.80
2023-03-05T23:43:44.272Z,20.50
2023-03-05T23:46:14.675Z,16.10
2023-03-05T23:48:51.915Z,16.20
2023-03-05T23:51:22.380Z,16.00
2023-03-05T23:53:53.140Z,16.90
2023-03-05T23:56:26.382Z,21.50
2023-03-05T23:59:10.905Z,19.60
